Time;durP1;ratioP1;P1;durP2;ratioP2;P2;SDS_P1;SDS_P2;PMS_P1;PMS_P2;Temp;Humidity;BMP_temperature;BMP_pressure;BME280_temperature;BME280_humidity;BME280_pressure;Samples;Min_cycle;Max_cycle;Signal;HPM_P1;HPM_P2
2024/03/29 00:01:23;;;;;;;3.25;1.63;;;21.60;53.80;;;;;;4950160;28;87017;-59
2024/03/29 00:03:49;;;;;;;3.95;1.88;;;21.60;53.80;;;;;;4950112;28;87366;-59
2024/03/29 00:06:15;;;;;;;2.85;1.63;;;21.60;53.70;;;;;;4948392;28;87456;-59
2024/03/29 00:08:41;;;;;;;4.18;2.10;;;21.60;53.90;;;;;;4949430;28;87105;-59
2024/03/29 00:11:06;;;;;;;3.35;1.67;;;21.60;53.90;;;;;;4947914;28;86941;-59
2024/03/29 00:13:32;;;;;;;5.68;2.05;;;21.60;53.90;;;;;;4947297;28;87390;-59
2024/03/29 00:15:58;;;;;;;3.92;1.58;;;21.60;54.00;;;;;;4947116;28;89313;-59
2024/03/29 00:18:23;;;;;;;2.65;1.40;;;21.50;54.10;;;;;;4953736;28;88450;-59
2024/03/29 00:20:49;;;;;;;3.63;1.88;;;21.50;53.80;;;;;;4952119;28;87287;-59
2024/03/29 00:23:17;;;;;;;2.80;1.50;;;21.50;53.80;;;;;;4948703;28;87633;-58
2024/03/29 00:25:42;;;;;;;4.45;2.08;;;21.50;53.90;;;;;;4949489;28;88227;-60
2024/03/29 00:28:09;;;;;;;2.45;1.42;;;21.50;53.90;;;;;;4951369;28;88138;-59
2024/03/29 00:30:35;;;;;;;5.13;1.75;;;21.50;53.90;;;;;;4954169;28;87285;-59
2024/03/29 00:33:01;;;;;;;4.28;2.05;;;21.50;54.00;;;;;;4952177;28;88379;-59
2024/03/29 00:35:26;;;;;;;3.05;1.40;;;21.50;53.80;;;;;;4951183;28;88863;-58
2024/03/29 00:37:52;;;;;;;2.50;1.55;;;21.50;53.90;;;;;;4950094;28;87878;-59
2024/03/29 00:40:19;;;;;;;2.95;1.50;;;21.50;53.80;;;;;;4950964;28;88474;-59
2024/03/29 00:42:45;;;;;;;2.60;1.33;;;21.50;53.90;;;;;;4934106;28;87966;-58
2024/03/29 00:45:11;;;;;;;3.88;2.17;;;21.40;53.90;;;;;;4953848;28;89222;-59
2024/03/29 00:47:38;;;;;;;4.95;1.60;;;21.40;53.90;;;;;;4953711;28;87346;-59
2024/03/29 00:50:04;;;;;;;3.65;1.63;;;21.40;54.00;;;;;;4953562;28;87327;-59
2024/03/29 00:52:30;;;;;;;2.17;1.45;;;21.40;53.80;;;;;;4952037;28;88054;-58
2024/03/29 00:54:55;;;;;;;3.70;1.70;;;21.40;53.90;;;;;;4949697;28;88157;-59
2024/03/29 00:57:21;;;;;;;3.25;2.13;;;21.40;53.80;;;;;;4952703;28;86373;-58
2024/03/29 00:59:47;;;;;;;2.65;1.42;;;21.40;53.90;;;;;;4951741;28;87319;-60
2024/03/29 01:02:13;;;;;;;3.70;1.73;;;21.30;53.90;;;;;;4952810;28;87371;-59
2024/03/29 01:04:40;;;;;;;2.80;1.75;;;21.30;53.80;;;;;;4946297;28;89489;-59
2024/03/29 01:07:06;;;;;;;2.38;1.25;;;21.30;53.80;;;;;;4951638;28;87752;-59
2024/03/29 01:09:32;;;;;;;4.32;1.58;;;21.30;53.90;;;;;;4953235;28;87383;-59
2024/03/29 01:11:59;;;;;;;3.55;1.63;;;21.30;53.80;;;;;;4967163;28;87642;-59
2024/03/29 01:14:25;;;;;;;3.60;1.60;;;21.30;54.30;;;;;;4931398;28;88490;-59
2024/03/29 01:16:52;;;;;;;5.32;1.75;;;21.30;53.80;;;;;;4941943;28;87884;-60
2024/03/29 01:19:18;;;;;;;3.13;1.52;;;21.30;53.80;;;;;;4950651;28;87116;-59
2024/03/29 01:21:45;;;;;;;3.50;1.42;;;21.30;53.80;;;;;;4950795;28;88375;-59
2024/03/29 01:24:10;;;;;;;2.30;1.55;;;21.30;54.60;;;;;;4953790;28;87688;-59
2024/03/29 01:26:37;;;;;;;2.20;1.20;;;21.30;53.80;;;;;;4951458;28;87514;-59
2024/03/29 01:29:03;;;;;;;3.42;1.50;;;21.30;53.90;;;;;;4940675;28;88771;-60
2024/03/29 01:31:29;;;;;;;3.90;1.73;;;21.30;53.80;;;;;;4950389;28;87628;-59
2024/03/29 01:33:57;;;;;;;2.47;1.10;;;21.30;53.90;;;;;;4951016;28;88104;-59
2024/03/29 01:36:23;;;;;;;3.45;1.50;;;21.30;53.70;;;;;;4969747;28;88736;-59
2024/03/29 01:38:51;;;;;;;2.65;1.20;;;21.30;53.80;;;;;;4970171;28;87395;-59
2024/03/29 01:41:17;;;;;;;1.98;1.27;;;21.20;53.70;;;;;;4967451;28;87781;-59
2024/03/29 01:43:42;;;;;;;2.85;1.38;;;21.20;53.60;;;;;;4970130;28;88115;-59
2024/03/29 01:46:08;;;;;;;3.08;1.50;;;21.20;53.70;;;;;;4972190;28;87893;-59
2024/03/29 01:48:34;;;;;;;4.13;1.83;;;21.20;53.70;;;;;;4972172;28;86950;-58
2024/03/29 01:51:02;;;;;;;3.72;1.52;;;21.20;53.60;;;;;;4964045;28;87527;-60
2024/03/29 01:53:29;;;;;;;2.35;1.30;;;21.20;53.70;;;;;;4949480;28;89016;-59
2024/03/29 01:55:54;;;;;;;2.72;1.55;;;21.20;53.60;;;;;;4951509;28;88198;-59
2024/03/29 01:58:22;;;;;;;3.05;1.40;;;21.20;53.70;;;;;;4950360;28;86989;-59
2024/03/29 02:00:56;;;;;;;2.38;1.45;;;21.20;53.70;;;;;;4950149;28;87424;-59
2024/03/29 02:03:22;;;;;;;2.38;1.45;;;21.20;53.70;;;;;;4953161;28;88178;-60
2024/03/29 02:05:49;;;;;;;3.78;1.20;;;21.20;53.60;;;;;;4949337;28;86875;-59
2024/03/29 02:08:16;;;;;;;4.68;1.88;;;21.20;53.50;;;;;;4949897;28;87433;-59
2024/03/29 02:10:43;;;;;;;2.72;1.30;;;21.20;53.50;;;;;;4964206;28;87915;-59
2024/03/29 02:13:09;;;;;;;2.63;1.08;;;21.20;53.40;;;;;;4948042;28;90513;-60
2024/03/29 02:15:35;;;;;;;1.88;1.23;;;21.10;53.40;;;;;;4951341;28;88984;-59
2024/03/29 02:18:00;;;;;;;3.15;1.58;;;21.10;53.40;;;;;;4948374;28;88568;-59
2024/03/29 02:20:26;;;;;;;3.63;1.40;;;21.20;53.60;;;;;;4947714;28;87173;-58
2024/03/29 02:23:06;;;;;;;2.45;1.35;;;21.10;53.40;;;;;;4948681;28;88582;-59
2024/03/29 02:25:32;;;;;;;3.45;1.42;;;21.20;53.60;;;;;;4943828;28;87222;-59
2024/03/29 02:27:59;;;;;;;6.55;1.88;;;21.10;53.50;;;;;;4947959;28;87063;-59
2024/03/29 02:30:25;;;;;;;5.10;1.55;;;21.10;53.40;;;;;;4952263;28;87243;-60
2024/03/29 02:32:51;;;;;;;9.52;1.90;;;21.10;53.40;;;;;;4951983;28;87926;-59
2024/03/29 02:35:17;;;;;;;2.53;1.50;;;21.10;53.60;;;;;;4948639;28;89684;-60
2024/03/29 02:37:43;;;;;;;3.25;1.30;;;21.10;53.40;;;;;;4948434;28;87640;-59
2024/03/29 02:40:08;;;;;;;2.00;1.20;;;21.10;53.30;;;;;;4949699;28;87691;-59
2024/03/29 02:42:35;;;;;;;2.08;1.23;;;21.10;53.30;;;;;;4950836;28;89140;-60
2024/03/29 02:45:02;;;;;;;1.98;1.10;;;21.10;53.40;;;;;;4951692;28;88650;-58
2024/03/29 02:47:28;;;;;;;2.38;1.10;;;21.10;53.40;;;;;;4950872;28;87031;-59
2024/03/29 02:49:54;;;;;;;2.30;1.40;;;21.10;53.30;;;;;;4950400;28;87778;-59
2024/03/29 02:52:19;;;;;;;2.83;1.40;;;21.10;53.30;;;;;;4949409;28;87564;-59
2024/03/29 02:54:45;;;;;;;2.05;1.30;;;21.00;53.20;;;;;;4950677;28;86918;-59
2024/03/29 02:57:10;;;;;;;3.03;1.23;;;21.10;53.20;;;;;;4951976;28;87434;-59
2024/03/29 02:59:36;;;;;;;2.15;1.20;;;21.00;53.30;;;;;;4951769;28;87036;-59
2024/03/29 03:02:02;;;;;;;2.53;1.27;;;21.00;53.30;;;;;;4951558;28;87676;-59
2024/03/29 03:04:28;;;;;;;3.47;1.48;;;21.00;53.20;;;;;;4951462;28;88106;-59
2024/03/29 03:06:55;;;;;;;1.70;1.27;;;21.00;53.40;;;;;;4950475;28;88629;-59
2024/03/29 03:12:06;;;;;;;1.67;1.10;;;21.00;53.20;;;;;;4950060;28;91973;-59
2024/03/29 03:14:33;;;;;;;2.65;1.00;;;21.00;53.20;;;;;;4950886;28;87540;-59
2024/03/29 03:17:00;;;;;;;2.60;1.20;;;21.00;53.30;;;;;;4950578;28;87451;-60
2024/03/29 03:19:26;;;;;;;2.40;1.13;;;21.00;53.20;;;;;;4948189;28;87894;-59
2024/03/29 03:21:52;;;;;;;2.35;1.00;;;20.90;53.30;;;;;;4947619;28;88113;-60
2024/03/29 03:24:17;;;;;;;2.97;1.38;;;21.00;53.30;;;;;;4951531;28;87279;-59
2024/03/29 03:26:43;;;;;;;3.38;1.33;;;21.00;53.30;;;;;;4951054;28;86923;-59
2024/03/29 03:29:10;;;;;;;2.30;0.98;;;20.90;53.20;;;;;;4948435;28;87331;-59
2024/03/29 03:31:35;;;;;;;3.83;1.20;;;20.90;53.10;;;;;;4948523;28;89708;-59
2024/03/29 03:34:01;;;;;;;1.48;1.10;;;20.90;53.40;;;;;;4948556;28;89071;-59
2024/03/29 03:36:27;;;;;;;2.17;1.20;;;20.90;53.30;;;;;;4952895;28;87024;-60
2024/03/29 03:38:54;;;;;;;2.53;1.20;;;20.90;53.30;;;;;;4945453;28;87838;-59
2024/03/29 03:41:22;;;;;;;2.20;1.10;;;20.90;53.30;;;;;;4949814;28;88423;-59
2024/03/29 03:43:47;;;;;;;1.67;1.10;;;20.90;53.30;;;;;;4949971;28;87525;-59
2024/03/29 03:46:13;;;;;;;2.50;1.40;;;20.90;53.20;;;;;;4950472;28;87531;-59
2024/03/29 03:48:39;;;;;;;2.42;1.58;;;20.90;53.40;;;;;;4951631;28;86666;-59
2024/03/29 03:51:06;;;;;;;1.20;0.88;;;20.90;53.40;;;;;;4948925;28;89943;-59
2024/03/29 03:53:31;;;;;;;2.15;1.25;;;20.80;53.40;;;;;;4951223;28;89219;-58
2024/03/29 03:55:57;;;;;;;1.50;1.00;;;20.80;53.40;;;;;;4953818;28;88425;-59
2024/03/29 03:58:23;;;;;;;2.25;1.20;;;20.90;53.40;;;;;;4953801;28;87626;-59
2024/03/29 04:00:50;;;;;;;1.30;0.85;;;20.90;53.40;;;;;;4952746;28;88649;-59
2024/03/29 04:03:16;;;;;;;3.75;1.40;;;20.80;53.20;;;;;;4953811;28;88470;-59
2024/03/29 04:05:42;;;;;;;2.30;1.25;;;20.90;53.50;;;;;;4953845;28;87538;-58
2024/03/29 04:08:07;;;;;;;1.15;0.80;;;20.80;53.40;;;;;;4953793;28;86954;-59
2024/03/29 04:10:38;;;;;;;2.67;1.40;;;20.80;53.30;;;;;;4946148;28;88827;-59
2024/03/29 04:13:04;;;;;;;1.38;0.90;;;20.80;53.50;;;;;;4952458;28;88202;-60
2024/03/29 04:15:29;;;;;;;2.83;1.42;;;20.80;53.40;;;;;;4954128;28;86862;-59
2024/03/29 04:17:56;;;;;;;2.05;1.63;;;20.80;53.40;;;;;;4953088;28;88072;-59
2024/03/29 04:20:22;;;;;;;2.10;1.10;;;20.80;53.40;;;;;;4953271;28;89123;-59
2024/03/29 04:22:49;;;;;;;2.53;1.55;;;20.80;53.40;;;;;;4953341;28;88791;-59
2024/03/29 04:25:14;;;;;;;2.28;1.02;;;20.80;53.30;;;;;;4950388;28;87082;-59
2024/03/29 04:27:40;;;;;;;2.08;1.10;;;20.80;53.40;;;;;;4951048;28;88749;-60
2024/03/29 04:30:07;;;;;;;1.83;1.10;;;20.80;53.40;;;;;;4953377;28;88170;-59
2024/03/29 04:32:33;;;;;;;2.35;0.93;;;20.80;53.40;;;;;;4950610;28;87245;-59
2024/03/29 04:34:58;;;;;;;2.47;0.90;;;20.80;53.30;;;;;;4951213;28;86986;-59
2024/03/29 04:37:24;;;;;;;1.83;1.10;;;20.80;53.40;;;;;;4952576;28;86722;-59
2024/03/29 04:39:50;;;;;;;1.52;1.05;;;20.80;53.40;;;;;;4950714;28;88515;-59
2024/03/29 04:42:16;;;;;;;1.60;1.00;;;20.70;53.50;;;;;;4952306;28;88714;-59
2024/03/29 04:44:42;;;;;;;2.55;1.30;;;20.70;53.40;;;;;;4951092;28;88129;-59
2024/03/29 04:47:08;;;;;;;2.00;1.10;;;20.80;53.40;;;;;;4950440;28;87419;-59
2024/03/29 04:49:36;;;;;;;2.13;1.10;;;20.80;53.30;;;;;;4952348;28;88066;-59
2024/03/29 04:52:04;;;;;;;2.00;1.40;;;20.70;53.40;;;;;;4952983;28;88169;-60
2024/03/29 04:54:30;;;;;;;1.42;0.90;;;20.70;53.20;;;;;;4967860;28;87487;-59
2024/03/29 04:56:56;;;;;;;1.73;1.10;;;20.70;53.30;;;;;;4950272;28;88454;-59
2024/03/29 04:59:23;;;;;;;2.03;0.85;;;20.70;53.30;;;;;;4952250;28;87215;-60
2024/03/29 05:01:53;;;;;;;2.47;1.00;;;20.70;53.30;;;;;;4945826;28;88140;-59
2024/03/29 05:04:25;;;;;;;1.67;0.82;;;20.70;53.40;;;;;;4951204;28;87438;-59
2024/03/29 05:06:52;;;;;;;2.20;1.35;;;20.70;53.60;;;;;;4954015;28;87255;-59
2024/03/29 05:09:19;;;;;;;2.22;1.10;;;20.70;53.40;;;;;;4945477;28;88728;-61
2024/03/29 05:11:48;;;;;;;1.70;0.93;;;20.70;53.40;;;;;;4961340;28;88752;-59
2024/03/29 05:14:19;;;;;;;2.88;1.08;;;20.70;53.40;;;;;;4947666;28;87384;-60
2024/03/29 05:16:46;;;;;;;1.45;0.95;;;20.70;53.40;;;;;;4948041;28;87981;-59
2024/03/29 05:19:13;;;;;;;1.02;0.90;;;20.70;53.40;;;;;;4946225;28;87775;-60
2024/03/29 05:21:39;;;;;;;2.58;1.63;;;20.60;53.50;;;;;;4952236;28;88745;-59
2024/03/29 05:24:06;;;;;;;1.83;0.93;;;20.60;53.50;;;;;;4948624;28;87100;-59
2024/03/29 05:26:32;;;;;;;2.63;0.80;;;20.60;53.40;;;;;;4951364;28;87379;-60
2024/03/29 05:28:59;;;;;;;1.50;1.13;;;20.60;53.50;;;;;;4947010;28;88221;-59
2024/03/29 05:31:26;;;;;;;2.33;1.13;;;20.60;53.60;;;;;;4951621;28;87428;-60
2024/03/29 05:33:52;;;;;;;2.40;1.10;;;20.60;53.60;;;;;;4943838;28;88472;-59
2024/03/29 05:36:18;;;;;;;1.67;1.23;;;20.60;53.70;;;;;;4953520;28;87556;-59
2024/03/29 05:38:44;;;;;;;1.88;1.00;;;20.60;53.70;;;;;;4952088;28;87984;-59
2024/03/29 05:41:10;;;;;;;1.98;0.95;;;20.60;53.60;;;;;;4949497;28;88929;-59
2024/03/29 05:43:41;;;;;;;1.88;0.95;;;20.60;53.70;;;;;;4949557;28;87545;-59
2024/03/29 05:46:07;;;;;;;1.40;0.82;;;20.60;53.60;;;;;;4968983;28;87058;-59
2024/03/29 05:48:32;;;;;;;1.52;0.82;;;20.60;53.60;;;;;;4971665;28;88210;-60
2024/03/29 05:50:59;;;;;;;1.98;1.08;;;20.60;53.50;;;;;;4971159;28;88387;-59
2024/03/29 05:53:25;;;;;;;2.55;1.23;;;20.60;53.60;;;;;;4969888;28;87591;-60
2024/03/29 05:55:51;;;;;;;1.85;1.10;;;20.60;53.60;;;;;;4969405;28;87472;-59
2024/03/29 05:58:18;;;;;;;1.65;0.90;;;20.50;53.50;;;;;;4970384;28;88505;-59
2024/03/29 06:00:44;;;;;;;1.25;0.70;;;20.60;53.50;;;;;;4964560;28;88641;-59
2024/03/29 06:03:11;;;;;;;1.90;1.13;;;20.60;53.50;;;;;;4972802;28;87432;-59
2024/03/29 06:05:37;;;;;;;1.50;0.80;;;20.50;53.40;;;;;;4968864;28;87812;-59
2024/03/29 06:08:05;;;;;;;1.95;1.10;;;20.50;53.50;;;;;;4969960;28;88251;-59
2024/03/29 06:10:31;;;;;;;2.35;1.35;;;20.50;53.60;;;;;;4970136;28;87694;-59
2024/03/29 06:13:06;;;;;;;2.03;1.02;;;20.50;53.70;;;;;;4951564;28;87514;-59
2024/03/29 06:18:18;;;;;;;2.70;1.10;;;20.50;53.60;;;;;;4949859;28;91915;-59
2024/03/29 06:20:45;;;;;;;2.38;1.13;;;20.50;53.80;;;;;;4949131;28;87784;-59
2024/03/29 06:23:11;;;;;;;1.33;0.95;;;20.50;53.80;;;;;;4951093;28;88185;-59
2024/03/29 06:25:36;;;;;;;1.80;1.17;;;20.50;53.70;;;;;;4950992;28;88287;-59
2024/03/29 06:28:03;;;;;;;1.60;1.15;;;20.50;53.90;;;;;;4950939;28;88495;-59
2024/03/29 06:30:31;;;;;;;1.20;0.80;;;20.50;53.50;;;;;;4952297;28;88051;-60
2024/03/29 06:33:00;;;;;;;;;;;20.50;53.80;;;;;;4965533;28;86974;-59
2024/03/29 06:35:27;;;;;;;1.50;1.02;;;20.50;53.60;;;;;;4951397;28;87698;-60
2024/03/29 06:37:57;;;;;;;0.90;0.65;;;20.50;53.80;;;;;;4947791;28;87704;-59
2024/03/29 06:40:24;;;;;;;1.48;0.95;;;20.50;53.80;;;;;;4949003;28;88311;-60
2024/03/29 06:42:51;;;;;;;1.45;0.80;;;20.50;53.60;;;;;;4949444;28;87618;-59
2024/03/29 06:45:17;;;;;;;1.17;1.00;;;20.50;53.60;;;;;;4952248;28;87696;-59
2024/03/29 06:47:43;;;;;;;1.48;1.00;;;20.50;53.70;;;;;;4949044;28;89182;-61
2024/03/29 06:50:12;;;;;;;1.10;0.70;;;20.50;53.70;;;;;;4948635;28;89686;-59
2024/03/29 06:52:39;;;;;;;0.88;0.68;;;20.50;53.70;;;;;;4950062;28;87279;-59
2024/03/29 06:55:06;;;;;;;1.23;0.70;;;20.50;53.60;;;;;;4950823;28;87537;-60
2024/03/29 06:57:32;;;;;;;1.13;0.63;;;20.50;53.70;;;;;;4949561;28;88473;-59
2024/03/29 06:59:58;;;;;;;1.52;0.80;;;20.50;53.60;;;;;;4948834;28;88366;-59
2024/03/29 07:02:24;;;;;;;1.58;1.10;;;20.50;53.80;;;;;;4950013;28;87328;-59
2024/03/29 07:04:50;;;;;;;1.80;0.88;;;20.50;53.70;;;;;;4948248;28;88129;-59
2024/03/29 07:07:16;;;;;;;1.15;0.75;;;20.50;53.70;;;;;;4948842;28;90649;-59
2024/03/29 07:09:41;;;;;;;2.17;1.02;;;20.50;53.80;;;;;;4949795;28;87667;-61
2024/03/29 07:12:07;;;;;;;1.27;0.80;;;20.50;53.70;;;;;;4949618;28;88541;-60
2024/03/29 07:14:33;;;;;;;0.85;0.60;;;20.50;54.30;;;;;;4969223;28;87252;-59
2024/03/29 07:17:01;;;;;;;1.52;0.90;;;20.50;53.60;;;;;;4968628;28;88280;-59
2024/03/29 07:19:28;;;;;;;1.55;0.70;;;20.50;53.60;;;;;;4958982;28;87796;-59
2024/03/29 07:21:53;;;;;;;0.88;0.70;;;20.50;53.80;;;;;;4962974;28;87560;-58
2024/03/29 07:24:20;;;;;;;1.48;0.88;;;20.40;53.60;;;;;;4968920;28;87936;-59
2024/03/29 07:26:46;;;;;;;1.33;0.70;;;20.40;53.60;;;;;;4966283;28;87748;-59
2024/03/29 07:29:12;;;;;;;2.10;1.20;;;20.50;53.60;;;;;;4956129;28;88472;-59
2024/03/29 07:31:38;;;;;;;1.40;0.75;;;20.40;53.70;;;;;;4948161;28;87278;-60
2024/03/29 07:34:03;;;;;;;2.20;1.00;;;20.40;53.70;;;;;;4949065;28;88076;-59
2024/03/29 07:36:35;;;;;;;1.25;0.80;;;20.40;53.70;;;;;;4951894;28;88852;-58
2024/03/29 07:39:03;;;;;;;0.98;0.50;;;20.40;53.70;;;;;;4948198;28;89577;-61
2024/03/29 07:41:32;;;;;;;1.20;0.70;;;20.40;53.80;;;;;;4949277;28;87318;-59
2024/03/29 07:44:05;;;;;;;;;;;20.40;53.70;;;;;;4947505;28;87560;-59
2024/03/29 07:46:37;;;;;;;0.93;0.65;;;20.40;53.70;;;;;;4965802;28;89037;-59
2024/03/29 07:49:04;;;;;;;1.20;0.90;;;20.40;53.70;;;;;;4955165;28;87920;-60
2024/03/29 07:51:30;;;;;;;1.65;1.08;;;20.40;53.70;;;;;;4952111;28;86924;-60
2024/03/29 07:53:56;;;;;;;1.02;0.70;;;20.50;53.20;;;;;;4950338;28;87109;-60
2024/03/29 07:56:22;;;;;;;1.38;0.80;;;20.40;53.10;;;;;;4948519;28;88561;-59
2024/03/29 07:58:52;;;;;;;1.63;0.85;;;20.40;53.30;;;;;;4949590;28;88314;-61
2024/03/29 08:01:23;;;;;;;2.10;0.65;;;20.50;54.00;;;;;;4940653;28;88579;-59
2024/03/29 08:03:55;;;;;;;0.73;0.52;;;20.50;54.20;;;;;;4947557;28;87677;-60
2024/03/29 08:06:23;;;;;;;0.90;0.50;;;20.70;54.10;;;;;;4949595;28;88203;-60
2024/03/29 08:08:52;;;;;;;1.02;0.60;;;20.90;54.70;;;;;;4950397;28;87857;-61
2024/03/29 08:11:18;;;;;;;1.27;0.90;;;21.10;53.70;;;;;;4928492;28;87705;-59
2024/03/29 08:13:44;;;;;;;1.23;0.68;;;21.30;53.40;;;;;;4936735;28;87529;-60
2024/03/29 08:16:10;;;;;;;0.70;0.60;;;21.40;53.40;;;;;;4949703;28;87854;-60
2024/03/29 08:18:36;;;;;;;1.15;0.63;;;21.50;53.50;;;;;;4948600;28;88424;-61
2024/03/29 08:21:03;;;;;;;1.38;0.57;;;21.50;53.40;;;;;;4949811;28;88264;-60
2024/03/29 08:23:34;;;;;;;1.38;0.65;;;21.60;53.20;;;;;;4947706;28;86990;-60
2024/03/29 08:26:01;;;;;;;2.53;0.70;;;21.60;53.00;;;;;;4948654;28;90110;-59
2024/03/29 08:28:29;;;;;;;0.95;0.70;;;21.70;53.20;;;;;;4950579;28;89634;-61
2024/03/29 08:30:59;;;;;;;1.83;1.08;;;21.70;53.00;;;;;;4946597;28;87050;-59
2024/03/29 08:33:25;;;;;;;2.05;1.50;;;21.70;53.20;;;;;;4948622;28;87187;-61
2024/03/29 08:35:51;;;;;;;0.85;0.47;;;21.80;53.40;;;;;;4947262;28;90324;-58
2024/03/29 08:38:16;;;;;;;1.33;0.75;;;21.80;53.30;;;;;;4949587;28;87816;-61
2024/03/29 08:40:46;;;;;;;1.60;0.93;;;21.80;53.30;;;;;;4947220;28;87796;-60
2024/03/29 08:43:12;;;;;;;;;;;21.80;53.00;;;;;;4957392;28;86643;-59
2024/03/29 08:45:40;;;;;;;;;;;21.80;53.10;;;;;;4980780;28;88962;-60
2024/03/29 08:48:10;;;;;;;1.52;0.98;;;21.80;53.30;;;;;;4950637;28;92411;-59
2024/03/29 08:50:37;;;;;;;0.98;0.70;;;21.80;53.30;;;;;;4956126;28;88901;-60
2024/03/29 08:53:03;;;;;;;1.48;0.65;;;21.90;53.30;;;;;;4930944;28;88748;-60
2024/03/29 08:55:30;;;;;;;1.13;0.80;;;21.80;53.40;;;;;;4955988;28;87500;-60
2024/03/29 08:58:00;;;;;;;0.90;0.75;;;21.80;53.30;;;;;;4951837;28;87338;-60
2024/03/29 09:00:31;;;;;;;2.78;1.10;;;21.90;53.30;;;;;;4951239;28;87457;-60
2024/03/29 09:02:58;;;;;;;0.55;0.45;;;21.80;53.20;;;;;;4930917;28;87301;-60
2024/03/29 09:05:25;;;;;;;0.55;0.50;;;21.80;53.30;;;;;;4932831;28;88143;-60
2024/03/29 09:07:51;;;;;;;1.15;0.68;;;21.80;53.40;;;;;;4966810;28;89074;-61
2024/03/29 09:10:17;;;;;;;4.72;1.17;;;21.80;53.50;;;;;;4948186;28;87388;-60
2024/03/29 09:12:42;;;;;;;8.85;2.45;;;21.80;53.40;;;;;;4930342;28;87875;-60
2024/03/29 09:15:13;;;;;;;11.93;3.33;;;21.90;53.40;;;;;;4950066;28;88657;-60
2024/03/29 09:17:47;;;;;;;11.95;3.63;;;21.90;53.50;;;;;;4945007;28;88908;-59
2024/03/29 09:20:14;;;;;;;16.98;4.00;;;21.90;53.50;;;;;;4950599;28;87487;-59
2024/03/29 09:22:39;;;;;;;;;;;21.90;53.40;;;;;;4950817;28;87699;-60
2024/03/29 09:25:06;;;;;;;13.70;3.33;;;21.90;53.50;;;;;;4946888;28;88050;-60
2024/03/29 09:27:36;;;;;;;11.85;3.00;;;21.90;53.60;;;;;;4951036;28;87795;-58
2024/03/29 09:30:02;;;;;;;8.43;2.50;;;21.90;53.70;;;;;;4952136;28;87505;-60
2024/03/29 09:32:29;;;;;;;11.90;3.95;;;21.90;53.70;;;;;;4948164;28;87576;-60
2024/03/29 09:34:56;;;;;;;12.00;3.15;;;21.90;53.70;;;;;;4951161;28;88857;-60
2024/03/29 09:37:23;;;;;;;;;;;21.90;53.60;;;;;;4949506;28;88886;-59
2024/03/29 09:39:49;;;;;;;14.38;3.67;;;21.90;53.60;;;;;;4948380;28;87799;-60
2024/03/29 09:42:16;;;;;;;17.83;4.43;;;21.90;53.70;;;;;;4947629;28;87499;-61
2024/03/29 09:44:45;;;;;;;16.63;4.47;;;21.90;53.70;;;;;;4966572;28;88821;-59
2024/03/29 09:47:15;;;;;;;16.98;4.85;;;21.90;53.80;;;;;;4949296;28;88279;-60
2024/03/29 09:49:44;;;;;;;13.35;3.75;;;21.90;53.90;;;;;;4955980;28;87589;-60
2024/03/29 09:52:11;;;;;;;;;;;21.90;53.80;;;;;;4968037;28;87425;-60
2024/03/29 09:54:36;;;;;;;;;;;21.90;53.80;;;;;;4966392;28;87420;-60
2024/03/29 09:57:02;;;;;;;;;;;21.90;53.80;;;;;;4986436;28;88165;-60
2024/03/29 09:59:30;;;;;;;;;;;21.90;54.00;;;;;;4969745;28;87626;-59
2024/03/29 10:01:58;;;;;;;;;;;21.90;53.90;;;;;;4970902;28;87116;-60
2024/03/29 10:04:24;;;;;;;;;;;21.90;54.00;;;;;;4985699;28;89990;-59
2024/03/29 10:06:50;;;;;;;;;;;21.90;54.00;;;;;;4961639;28;89193;-59
2024/03/29 10:09:17;;;;;;;;;;;21.90;53.90;;;;;;4952254;28;86848;-60
2024/03/29 10:11:44;;;;;;;15.48;4.20;;;21.90;53.90;;;;;;4950527;28;86996;-59
2024/03/29 10:14:10;;;;;;;14.55;5.28;;;21.90;53.70;;;;;;4951321;28;88203;-59
2024/03/29 10:16:36;;;;;;;;;;;21.90;53.90;;;;;;4951096;28;89324;-59
2024/03/29 10:19:03;;;;;;;15.23;4.43;;;21.90;53.80;;;;;;4953706;28;87088;-59
2024/03/29 10:21:28;;;;;;;19.25;5.10;;;21.90;53.80;;;;;;4965372;28;87876;-59
2024/03/29 10:23:56;;;;;;;19.52;5.88;;;21.90;53.40;;;;;;4950795;28;87985;-59
2024/03/29 10:26:22;;;;;;;22.65;4.97;;;21.90;53.00;;;;;;4949942;28;87269;-59
2024/03/29 10:28:49;;;;;;;16.00;4.45;;;21.90;51.70;;;;;;4950296;28;88611;-60
2024/03/29 10:31:15;;;;;;;28.50;7.88;;;21.90;53.20;;;;;;4948100;28;89624;-59
2024/03/29 10:33:46;;;;;;;18.63;5.28;;;21.90;52.30;;;;;;4949011;28;88696;-61
2024/03/29 10:36:12;;;;;;;18.63;4.88;;;21.90;52.30;;;;;;4949470;28;88664;-61
2024/03/29 10:38:39;;;;;;;16.58;4.88;;;21.90;52.10;;;;;;4948691;28;87485;-59
2024/03/29 10:41:06;;;;;;;17.50;4.10;;;21.90;52.20;;;;;;4949803;28;88161;-60
2024/03/29 10:43:33;;;;;;;12.95;3.42;;;21.90;51.50;;;;;;4943292;28;98221;-60
2024/03/29 10:46:03;;;;;;;16.85;3.83;;;21.90;51.20;;;;;;4946839;28;93131;-60
2024/03/29 10:48:36;;;;;;;15.70;4.50;;;21.90;51.40;;;;;;4949534;28;92336;-61
2024/03/29 10:51:02;;;;;;;10.68;3.60;;;21.80;51.80;;;;;;4946099;28;92927;-59
2024/03/29 10:53:30;;;;;;;13.32;4.57;;;21.80;51.60;;;;;;4936469;28;94055;-61
2024/03/29 10:55:58;;;;;;;14.35;3.33;;;21.80;51.70;;;;;;4966740;28;93183;-60
2024/03/29 10:58:35;;;;;;;9.63;2.47;;;21.70;52.10;;;;;;4947439;28;92711;-60
2024/03/29 11:01:05;;;;;;;9.60;3.40;;;21.70;52.10;;;;;;4946937;28;92390;-61
2024/03/29 11:03:58;;;;;;;10.05;3.80;;;21.70;52.50;;;;;;4946635;28;93687;-60
2024/03/29 11:06:26;;;;;;;9.63;3.42;;;21.80;52.80;;;;;;4947312;28;92412;-60
2024/03/29 11:08:55;;;;;;;9.93;3.00;;;21.70;52.80;;;;;;4945682;28;92505;-59
2024/03/29 11:11:25;;;;;;;11.70;3.33;;;21.80;52.90;;;;;;4962790;28;91807;-60
2024/03/29 11:13:52;;;;;;;12.90;3.30;;;21.80;53.10;;;;;;4948690;28;93560;-60
2024/03/29 11:16:18;;;;;;;13.85;4.13;;;21.80;53.10;;;;;;4947415;28;92932;-61
2024/03/29 11:18:47;;;;;;;14.90;4.93;;;21.90;53.70;;;;;;4944859;28;93763;-60
2024/03/29 11:21:18;;;;;;;12.07;3.13;;;22.00;53.60;;;;;;4943256;28;92574;-59
2024/03/29 11:23:49;;;;;;;10.30;3.45;;;21.90;53.90;;;;;;4943831;28;93067;-60
2024/03/29 11:26:16;;;;;;;12.13;3.33;;;21.90;54.20;;;;;;4944707;28;92775;-60
2024/03/29 11:28:47;;;;;;;10.70;3.65;;;21.90;54.10;;;;;;4949136;28;92881;-60
2024/03/29 11:31:14;;;;;;;9.90;2.85;;;21.90;54.30;;;;;;4962312;28;92423;-60
2024/03/29 11:33:46;;;;;;;10.48;3.33;;;21.90;54.50;;;;;;4946043;28;93755;-60
2024/03/29 11:36:27;;;;;;;7.65;2.97;;;21.90;54.80;;;;;;4947213;28;93303;-60
2024/03/29 11:38:58;;;;;;;13.70;4.20;;;21.90;54.90;;;;;;4946208;28;92674;-60
2024/03/29 11:41:26;;;;;;;13.15;3.67;;;21.90;55.00;;;;;;4945598;28;92759;-60
2024/03/29 11:43:55;;;;;;;8.20;2.70;;;21.90;55.20;;;;;;4946137;28;96129;-61
2024/03/29 11:46:22;;;;;;;11.18;3.58;;;21.90;55.40;;;;;;4948372;28;93832;-60
2024/03/29 11:48:52;;;;;;;6.43;2.78;;;22.00;55.00;;;;;;4948669;28;92265;-61
2024/03/29 11:51:21;;;;;;;8.20;2.83;;;22.00;54.80;;;;;;4965092;28;92278;-61
2024/03/29 11:53:50;;;;;;;8.63;2.35;;;22.00;54.80;;;;;;4945921;28;92682;-60
2024/03/29 11:56:16;;;;;;;6.50;1.95;;;21.90;54.60;;;;;;4945028;28;92817;-61
2024/03/29 11:58:42;;;;;;;9.95;3.70;;;21.90;54.40;;;;;;4946029;28;92795;-60
2024/03/29 12:01:13;;;;;;;8.02;2.65;;;21.90;52.80;;;;;;4955538;28;91989;-60
2024/03/29 12:03:40;;;;;;;8.48;2.58;;;21.90;53.10;;;;;;4946137;28;93121;-60
2024/03/29 12:06:06;;;;;;;9.57;3.38;;;21.90;52.40;;;;;;4946131;28;92822;-60
2024/03/29 12:08:34;;;;;;;7.55;3.08;;;21.90;53.00;;;;;;4944413;28;93557;-61
2024/03/29 12:11:01;;;;;;;9.98;2.20;;;21.90;52.90;;;;;;4941260;28;92423;-61
2024/03/29 12:13:30;;;;;;;9.38;2.70;;;21.90;52.70;;;;;;4943047;28;93206;-60
2024/03/29 12:15:56;;;;;;;7.25;2.65;;;21.80;52.30;;;;;;4943577;28;92368;-59
2024/03/29 12:18:23;;;;;;;9.55;3.00;;;21.80;52.30;;;;;;4946831;28;92298;-60
2024/03/29 12:20:50;;;;;;;6.35;2.10;;;21.80;52.30;;;;;;4936536;28;92551;-61
2024/03/29 12:23:17;;;;;;;7.38;2.92;;;21.80;52.40;;;;;;4948123;28;93323;-61
2024/03/29 12:25:44;;;;;;;2.47;1.13;;;21.80;52.30;;;;;;4948756;28;93258;-55
2024/03/29 12:28:16;;;;;;;5.72;1.98;;;21.80;52.30;;;;;;4941761;28;92328;-61
2024/03/29 12:30:44;;;;;;;10.40;2.05;;;21.80;52.20;;;;;;4948909;28;92520;-61
2024/03/29 12:33:15;;;;;;;6.30;1.92;;;21.70;52.20;;;;;;4949494;28;94209;-60
2024/03/29 12:35:43;;;;;;;6.45;2.17;;;21.80;52.30;;;;;;4951045;28;93716;-60
2024/03/29 12:38:13;;;;;;;5.50;1.77;;;21.80;52.10;;;;;;4948646;28;92225;-61
2024/03/29 12:40:42;;;;;;;4.45;1.77;;;21.70;52.00;;;;;;4959632;28;92677;-60
2024/03/29 12:43:08;;;;;;;5.80;1.98;;;21.80;52.10;;;;;;4949975;28;93914;-60
2024/03/29 12:45:36;;;;;;;3.35;1.55;;;21.80;51.80;;;;;;4948917;28;92662;-59
2024/03/29 12:48:02;;;;;;;8.00;1.52;;;21.80;51.80;;;;;;4944551;28;92291;-60
2024/03/29 12:50:32;;;;;;;2.78;1.45;;;21.80;51.70;;;;;;4948074;28;92309;-60
2024/03/29 12:53:00;;;;;;;4.55;1.58;;;21.80;51.70;;;;;;4948250;28;93893;-60
2024/03/29 12:55:30;;;;;;;2.92;1.30;;;21.80;51.50;;;;;;4953920;28;92932;-59